KMXF/MXF METAR and TAF weather

Enter ICAO airport designator
Station Type Date Time Source
KMXF METAR 2020/01/26 18:56 UTC NOAA

KMXF 261856Z AUTO 00000KT 10SM BKN065 BKN080 OVC140 11/03 A3009 RMK AO2 SLP193 T01070033 $


Station Type Date Time Source
KMXF Decoded METAR 2020/01/26 18:56 UTC NOAA

Maxwell Air Force Base / Montgomery, AL, United States (KMXF) 32-23N 086-22W
Jan 26, 2020 - 01:56 PM EST / 2020.01.26 1856 UTC
Wind: Calm:0
Visibility: 10 mile(s):0
Sky conditions: overcast
Temperature: 51.3 F (10.7 C)
Dew Point: 37.9 F (3.3 C)
Relative Humidity: 60%
Pressure (altimeter): 30.09 in. Hg (1018 hPa)
ob: KMXF 261856Z AUTO 00000KT 10SM BKN065 BKN080 OVC140 11/03 A3009 RMK AO2 SLP193 T01070033
cycle: 19

Station Type Date Time Source
KMXF TAF 2020/01/26 12:12 UTC NOAA

TAF KMXF 261200Z 2612/2718 30006KT 9999 BKN200 QNH3010INS
BECMG 2615/2616 27006KT 9999 VCSH SCT060 BKN090 BKN200 QNH3004INS
BECMG 2701/2702 24009KT 8000 -SHRA BKN020 OVC040 QNH2997INS
TEMPO 2708/2710 BKN007 OVC015
BECMG 2710/2711 21006KT 9999 NSW OVC015 QNH3003INS TX13/2621Z TN02/2612Z

Example: see airport list